Time;durP1;ratioP1;P1;durP2;ratioP2;P2;SDS_P1;SDS_P2;PMS_P1;PMS_P2;Temp;Humidity;BMP_temperature;BMP_pressure;BME280_temperature;BME280_humidity;BME280_pressure;Samples;Min_cycle;Max_cycle;Signal;HPM_P1;HPM_P2
2021/08/24 00:01:57;;;;;;;;;5.50;5.00;;;;;24.19;47.15;102051.75;5071739;28;52843;-59
2021/08/24 00:04:22;;;;;;;;;6.00;4.00;;;;;24.18;46.96;102047.28;5062251;28;51137;-60
2021/08/24 00:06:47;;;;;;;;;6.00;5.25;;;;;24.18;46.99;102052.81;5058556;28;51152;-60
2021/08/24 00:09:13;;;;;;;;;5.00;5.00;;;;;24.17;47.40;102045.56;5061039;28;51041;-60
2021/08/24 00:11:38;;;;;;;;;4.50;3.25;;;;;24.16;47.40;102044.72;5065767;27;52376;-60
2021/08/24 00:14:06;;;;;;;;;6.00;4.00;;;;;24.17;46.91;102053.88;5074199;27;51061;-60
2021/08/24 00:16:31;;;;;;;;;9.00;7.50;;;;;24.16;47.15;102035.56;5068664;28;51048;-59
2021/08/24 00:18:57;;;;;;;;;8.50;5.00;;;;;24.15;47.37;102034.72;5071473;27;51231;-60
2021/08/24 00:21:22;;;;;;;;;7.00;6.25;;;;;24.16;47.01;102030.88;5061256;27;51270;-60
2021/08/24 00:23:48;;;;;;;;;7.75;6.00;;;;;24.15;47.16;102037.47;5054836;28;51110;-59
2021/08/24 00:26:13;;;;;;;;;6.75;6.75;;;;;24.15;47.43;102037.47;5067385;28;51080;-59
2021/08/24 00:28:38;;;;;;;;;5.75;5.75;;;;;24.14;46.96;102030.25;5054795;28;51173;-60
2021/08/24 00:31:04;;;;;;;;;6.50;5.00;;;;;24.15;47.46;102028.31;5064164;28;51197;-60
2021/08/24 00:33:29;;;;;;;;;4.75;4.75;;;;;24.14;47.19;102027.47;5060184;28;50963;-60
2021/08/24 00:35:55;;;;;;;;;5.50;5.50;;;;;24.14;47.45;102023.88;5070745;28;51122;-60
2021/08/24 00:38:23;;;;;;;;;7.25;5.00;;;;;24.12;47.54;102021.31;5069306;27;51370;-60
2021/08/24 00:40:58;;;;;;;;;6.00;4.00;;;;;24.12;47.12;102015.78;5063864;28;51813;-59
2021/08/24 00:43:25;;;;;;;;;6.75;6.00;;;;;24.11;47.31;102030.69;5058495;28;50974;-59
2021/08/24 00:45:55;;;;;;;;;8.00;7.00;;;;;24.10;47.65;102023.47;5068281;28;51144;-60
2021/08/24 00:48:28;;;;;;;;;3.25;3.25;;;;;24.09;47.19;102027.28;5060685;27;51060;-60
2021/08/24 00:50:54;;;;;;;;;9.75;7.50;;;;;24.10;47.51;102029.00;5060476;28;51783;-59
2021/08/24 00:53:23;;;;;;;;;5.00;5.00;;;;;24.09;47.33;102018.16;5062403;27;51305;-60
2021/08/24 00:55:51;;;;;;;;;7.00;5.00;;;;;24.08;47.50;102024.75;5071493;28;51091;-60
2021/08/24 00:58:18;;;;;;;;;9.00;6.00;;;;;24.08;47.12;102025.59;5077575;27;51282;-59
2021/08/24 01:00:45;;;;;;;;;7.50;5.00;;;;;24.07;47.74;102018.38;5070733;27;51135;-60
2021/08/24 01:03:15;;;;;;;;;8.75;7.00;;;;;24.06;47.59;102024.09;5071980;28;51415;-59
2021/08/24 01:05:42;;;;;;;;;6.00;5.25;;;;;24.06;47.55;102022.19;5065380;27;51124;-59
2021/08/24 01:08:21;;;;;;;;;4.25;3.75;;;;;24.05;47.26;102022.41;5065745;28;51021;-59
2021/08/24 01:11:19;;;;;;;;;6.50;4.75;;;;;24.05;47.62;102025.16;5065346;28;51275;-59
2021/08/24 01:14:06;;;;;;;;;7.00;6.75;;;;;24.04;47.55;102015.16;5070899;28;51316;-59
2021/08/24 01:16:44;;;;;;;;;5.75;5.50;;;;;24.02;47.50;102020.94;5071787;28;51107;-59
2021/08/24 01:19:40;;;;;;;;;5.25;5.00;;;;;24.02;47.53;102018.16;5065903;28;51440;-58
2021/08/24 01:22:30;;;;;;;;;7.00;4.00;;;;;24.01;47.34;102021.16;5073568;28;51932;-58
2021/08/24 01:25:02;;;;;;;;;5.50;5.50;;;;;24.02;47.55;102017.31;5075012;28;51867;-58
2021/08/24 01:27:42;;;;;;;;;5.75;5.75;;;;;24.00;47.75;102019.44;5063736;27;51298;-59
2021/08/24 01:30:11;;;;;;;;;7.00;6.00;;;;;23.99;47.90;102015.84;5064187;27;50985;-59
2021/08/24 01:32:55;;;;;;;;;6.75;6.00;;;;;23.98;47.53;102005.84;5056636;28;52133;-59
2021/08/24 01:35:58;;;;;;;;;6.00;6.00;;;;;23.97;47.88;102009.69;5068827;28;51076;-60
2021/08/24 01:38:30;;;;;;;;;5.00;5.00;;;;;23.97;47.61;102014.31;5022820;28;51297;-59
2021/08/24 01:41:10;;;;;;;;;4.75;3.00;;;;;23.96;47.76;102010.72;5023425;28;51063;-59
2021/08/24 01:44:17;;;;;;;;;7.00;6.50;;;;;23.95;47.65;102006.25;5039983;28;52147;-59
2021/08/24 01:47:07;;;;;;;;;6.25;5.00;;;;;23.95;48.16;102008.16;5070490;28;51309;-59
2021/08/24 01:49:40;;;;;;;;;7.50;7.00;;;;;23.93;47.83;102000.09;5065032;27;51254;-59
2021/08/24 01:52:10;;;;;;;;;7.50;6.00;;;;;23.93;47.92;101997.31;5060096;28;50912;-59
2021/08/24 01:54:40;;;;;;;;;9.75;6.25;;;;;23.93;47.56;102005.63;5064603;28;51703;-59
2021/08/24 01:57:13;;;;;;;;;4.75;4.00;;;;;23.91;47.93;101999.47;5056610;28;51239;-59
2021/08/24 01:59:51;;;;;;;;;5.25;4.25;;;;;23.92;47.63;101997.53;5068568;28;51144;-59
2021/08/24 02:02:25;;;;;;;;;6.25;5.00;;;;;23.90;47.94;102001.38;5062874;28;50964;-58
2021/08/24 02:04:58;;;;;;;;;7.00;6.50;;;;;23.90;48.11;102001.38;5066272;28;52330;-57
2021/08/24 02:07:27;;;;;;;;;7.00;6.00;;;;;23.92;47.56;102005.84;5070966;28;51092;-60
2021/08/24 02:09:59;;;;;;;;;7.00;6.00;;;;;23.90;47.70;101997.75;5058557;27;51249;-59
2021/08/24 02:12:30;;;;;;;;;7.00;5.75;;;;;23.89;47.66;102016.28;5056555;28;51160;-59
2021/08/24 02:14:57;;;;;;;;;6.00;6.00;;;;;23.89;47.58;102012.66;5059092;28;51410;-59
2021/08/24 02:17:23;;;;;;;;;5.75;5.75;;;;;23.89;47.79;102015.44;5064205;28;51453;-59
2021/08/24 02:19:54;;;;;;;;;6.50;6.00;;;;;23.89;47.60;102012.66;5060632;28;52172;-59
2021/08/24 02:22:27;;;;;;;;;4.75;4.75;;;;;23.88;47.81;102014.59;5056717;28;50962;-60
2021/08/24 02:24:58;;;;;;;;;9.50;7.75;;;;;23.88;47.81;102016.50;5061012;28;51222;-60
2021/08/24 02:27:29;;;;;;;;;4.75;4.75;;;;;23.87;47.89;102015.66;5067744;27;51038;-59
2021/08/24 02:29:55;;;;;;;;;8.00;6.25;;;;;23.86;48.15;102015.84;5061682;28;50986;-60
2021/08/24 02:32:25;;;;;;;;;9.00;8.00;;;;;23.86;47.80;102015.84;5059357;27;51053;-63
2021/08/24 02:34:56;;;;;;;;;7.50;6.75;;;;;23.86;47.76;102015.84;5061085;28;52275;-60
2021/08/24 02:37:25;;;;;;;;;8.75;7.00;;;;;23.85;47.61;102009.47;5071561;27;51725;-60
2021/08/24 02:40:02;;;;;;;;;11.00;7.00;;;;;23.86;47.80;102022.25;5058844;28;51034;-60
2021/08/24 02:42:58;;;;;;;;;9.25;8.00;;;;;23.84;47.98;102007.78;5083356;27;51071;-57
2021/08/24 02:45:29;;;;;;;;;9.00;9.00;;;;;23.84;47.98;102010.53;5064717;27;51754;-60
2021/08/24 02:47:56;;;;;;;;;9.50;7.50;;;;;23.84;47.66;102012.47;5062213;27;51074;-59
2021/08/24 02:50:23;;;;;;;;;8.00;6.00;;;;;23.83;48.17;102008.84;5056298;28;51016;-60
2021/08/24 02:52:49;;;;;;;;;8.25;8.25;;;;;23.83;48.05;102017.16;5056541;28;51216;-57
2021/08/24 02:55:14;;;;;;;;;6.25;6.00;;;;;23.83;48.21;102021.81;5063884;28;51955;-57
2021/08/24 02:57:40;;;;;;;;;9.75;7.00;;;;;23.82;48.10;102003.53;5063899;28;51187;-60
2021/08/24 03:00:06;;;;;;;;;9.00;8.75;;;;;23.82;48.29;102003.53;5069200;28;51642;-59
2021/08/24 03:02:32;;;;;;;;;8.50;8.50;;;;;23.80;48.13;102006.53;5071334;27;51349;-60
2021/08/24 03:04:57;;;;;;;;;9.00;9.00;;;;;23.80;48.17;102008.44;5060559;28;53734;-61
2021/08/24 03:07:33;;;;;;;;;7.25;6.25;;;;;23.80;48.08;102000.13;5064453;27;51148;-60
2021/08/24 03:10:05;;;;;;;;;9.25;8.75;;;;;23.79;48.23;102004.81;5072257;27;51127;-60
2021/08/24 03:12:46;;;;;;;;;11.25;8.25;;;;;23.79;48.20;102001.22;5057294;28;51326;-59
2021/08/24 03:15:22;;;;;;;;;10.75;10.25;;;;;23.78;48.40;101999.50;5067935;28;51303;-60
2021/08/24 03:18:00;;;;;;;;;10.00;7.75;;;;;23.77;48.08;102004.19;5060554;28;51235;-59
2021/08/24 03:20:30;;;;;;;;;11.00;11.00;;;;;23.76;48.33;101998.84;5070863;28;51282;-60
2021/08/24 03:22:57;;;;;;;;;10.75;8.25;;;;;23.76;48.44;101999.72;5073771;27;51057;-59
2021/08/24 03:25:23;;;;;;;;;10.25;8.50;;;;;23.75;48.51;102005.44;5067511;27;51945;-60
2021/08/24 03:27:51;;;;;;;;;10.50;9.25;;;;;23.76;48.02;101999.72;5066131;28;51086;-60
2021/08/24 03:30:18;;;;;;;;;12.25;10.00;;;;;23.75;48.45;102000.75;5055871;28;51114;-60
2021/08/24 03:32:45;;;;;;;;;13.75;11.75;;;;;23.73;48.37;101994.59;5063682;28;51984;-59
2021/08/24 03:35:13;;;;;;;;;13.00;13.00;;;;;23.73;48.44;102000.13;5069472;28;50985;-60
2021/08/24 03:37:39;;;;;;;;;13.25;11.25;;;;;23.72;48.36;101992.06;5075407;27;51038;-57
2021/08/24 03:40:07;;;;;;;;;10.25;10.25;;;;;23.71;48.23;102001.44;5060046;27;51160;-58
2021/08/24 03:42:32;;;;;;;;;11.00;10.50;;;;;23.71;48.51;101990.38;5071061;28;51362;-57
2021/08/24 03:44:58;;;;;;;;;14.00;14.00;;;;;23.70;48.39;101999.72;5072505;27;51988;-57
2021/08/24 03:47:23;;;;;;;;;15.25;13.25;;;;;23.69;48.70;101995.28;5075084;28;51174;-60
2021/08/24 03:49:48;;;;;;;;;16.50;15.75;;;;;23.68;48.57;102008.25;5074298;27;50996;-59
2021/08/24 03:52:14;;;;;;;;;10.50;10.50;;;;;23.68;48.74;102007.41;5074686;27;51585;-59
2021/08/24 03:54:39;;;;;;;;;14.00;12.75;;;;;23.67;48.58;102001.03;5072580;27;51989;-59
2021/08/24 03:57:05;;;;;;;;;14.75;14.75;;;;;23.67;48.27;102002.94;5062939;28;51029;-59
2021/08/24 03:59:30;;;;;;;;;16.50;15.00;;;;;23.66;48.63;102004.84;5073379;27;51069;-59
2021/08/24 04:01:55;;;;;;;;;17.50;14.00;;;;;23.65;48.34;102003.13;5058145;28;51196;-59
2021/08/24 04:04:21;;;;;;;;;14.75;12.50;;;;;23.66;48.34;102009.53;5062375;28;60933;-59
2021/08/24 04:06:46;;;;;;;;;15.00;15.00;;;;;23.65;48.41;102008.66;5057087;28;51197;-57
2021/08/24 04:09:11;;;;;;;;;19.50;15.25;;;;;23.64;48.91;102006.97;5057701;28;51063;-57
2021/08/24 04:11:37;;;;;;;;;15.25;14.75;;;;;23.63;48.85;102016.34;5066599;27;51035;-57
2021/08/24 04:14:03;;;;;;;;;15.00;14.50;;;;;23.63;48.42;102009.94;5077969;27;52336;-57
2021/08/24 04:16:28;;;;;;;;;16.75;15.00;;;;;23.62;48.79;102011.88;5067439;28;51433;-59
2021/08/24 04:18:53;;;;;;;;;16.25;15.75;;;;;23.61;48.81;102013.78;5070367;28;51290;-58
2021/08/24 04:21:19;;;;;;;;;17.75;12.75;;;;;23.61;48.58;102018.47;5078396;27;51238;-58
2021/08/24 04:23:47;;;;;;;;;14.00;13.50;;;;;23.60;48.59;102014.00;5077958;28;52670;-58
2021/08/24 04:26:13;;;;;;;;;21.25;18.25;;;;;23.59;48.72;102012.31;5068312;27;51096;-58
2021/08/24 04:28:38;;;;;;;;;16.75;15.00;;;;;23.57;48.37;102009.72;5070152;27;51193;-58
2021/08/24 04:31:06;;;;;;;;;16.75;16.25;;;;;23.57;48.64;102020.78;5077778;27;51100;-58
2021/08/24 04:33:33;;;;;;;;;16.50;15.50;;;;;23.56;48.97;102024.63;5077511;28;52394;-57
2021/08/24 04:35:58;;;;;;;;;18.50;16.25;;;;;23.55;48.33;102031.22;5076886;27;51495;-57
2021/08/24 04:38:23;;;;;;;;;16.00;14.75;;;;;23.56;48.73;102032.06;5076387;27;51163;-57
2021/08/24 04:40:50;;;;;;;;;18.50;16.50;;;;;23.55;48.48;102035.88;5070857;28;51105;-58
2021/08/24 04:43:17;;;;;;;;;13.00;12.50;;;;;23.53;48.84;102027.81;5074174;28;51425;-58
2021/08/24 04:45:42;;;;;;;;;17.25;13.25;;;;;23.53;48.60;102033.34;5072616;27;51108;-58
2021/08/24 04:48:08;;;;;;;;;14.50;14.50;;;;;23.53;48.60;102022.28;5075878;27;51213;-58
2021/08/24 04:50:34;;;;;;;;;16.75;16.00;;;;;23.52;48.76;102028.03;5078141;27;51124;-58
2021/08/24 04:52:59;;;;;;;;;17.25;15.50;;;;;23.51;48.92;102029.94;5058169;28;51108;-58
2021/08/24 04:55:25;;;;;;;;;16.75;15.75;;;;;23.51;48.83;102029.94;5069074;28;50993;-58
2021/08/24 04:57:50;;;;;;;;;15.75;15.00;;;;;23.52;48.69;102044.63;5075788;28;51414;-58
2021/08/24 05:00:16;;;;;;;;;15.75;12.75;;;;;23.50;48.73;102036.53;5060754;27;51004;-58
2021/08/24 05:02:41;;;;;;;;;17.50;15.50;;;;;23.50;48.47;102041.22;5069482;28;51626;-58
2021/08/24 05:05:07;;;;;;;;;15.50;14.75;;;;;23.50;48.86;102038.44;5063419;28;51126;-58
2021/08/24 05:07:33;;;;;;;;;18.00;14.50;;;;;23.48;48.60;102043.34;5058881;28;51069;-58
2021/08/24 05:09:59;;;;;;;;;14.25;13.50;;;;;23.49;48.75;102042.28;5058072;28;51473;-58
2021/08/24 05:12:24;;;;;;;;;13.00;11.75;;;;;23.47;48.42;102045.28;5060379;28;51668;-58
2021/08/24 05:14:50;;;;;;;;;14.00;13.00;;;;;23.47;48.80;102048.03;5058564;28;51188;-58
2021/08/24 05:17:15;;;;;;;;;15.75;14.75;;;;;23.45;49.05;102036.34;5060931;28;51076;-58
2021/08/24 05:19:40;;;;;;;;;16.00;16.00;;;;;23.45;48.75;102041.88;5064126;28;51147;-59
2021/08/24 05:22:06;;;;;;;;;17.75;13.25;;;;;23.44;48.59;102045.66;5058076;28;54282;-58
2021/08/24 05:24:34;;;;;;;;;15.75;11.50;;;;;23.44;48.72;102044.81;5062421;28;51726;-58
2021/08/24 05:27:00;;;;;;;;;14.25;12.00;;;;;23.43;48.66;102043.13;5063418;28;51177;-57
2021/08/24 05:29:26;;;;;;;;;15.25;14.00;;;;;23.44;49.05;102047.59;5073543;28;51195;-60
2021/08/24 05:31:52;;;;;;;;;12.75;12.75;;;;;23.43;48.64;102049.50;5064570;27;52089;-59
2021/08/24 05:34:17;;;;;;;;;16.25;15.25;;;;;23.42;48.85;102050.56;5073272;27;50946;-59
2021/08/24 05:36:42;;;;;;;;;16.50;12.75;;;;;23.40;48.52;102049.94;5066655;28;51132;-57
2021/08/24 05:39:08;;;;;;;;;14.00;14.00;;;;;23.40;48.77;102049.94;5072080;28;51287;-58
2021/08/24 05:41:33;;;;;;;;;17.50;15.00;;;;;23.39;49.01;102051.00;5069925;28;51820;-59
2021/08/24 05:43:59;;;;;;;;;20.75;17.75;;;;;23.37;48.79;102055.91;5062387;28;51257;-59
2021/08/24 05:46:24;;;;;;;;;18.75;17.50;;;;;23.37;48.92;102064.19;5075392;28;51458;-58
2021/08/24 05:48:49;;;;;;;;;20.00;17.25;;;;;23.35;49.19;102058.03;5065744;27;51100;-59
2021/08/24 05:51:18;;;;;;;;;16.75;16.75;;;;;23.34;49.05;102056.31;5058169;28;51692;-59
2021/08/24 05:53:44;;;;;;;;;16.00;14.50;;;;;23.32;48.95;102052.91;5070018;28;51092;-58
2021/08/24 05:56:11;;;;;;;;;21.75;17.25;;;;;23.30;49.03;102047.59;5061894;28;51275;-59
2021/08/24 05:58:38;;;;;;;;;14.25;14.25;;;;;23.30;49.37;102050.38;5070240;27;51139;-59
2021/08/24 06:01:04;;;;;;;;;15.50;14.25;;;;;23.28;49.10;102057.19;5070833;27;51200;-57
2021/08/24 06:03:29;;;;;;;;;17.75;13.75;;;;;23.28;48.78;102059.94;5070814;28;51557;-57
2021/08/24 06:05:54;;;;;;;;;13.50;10.00;;;;;23.29;49.23;102064.41;5066638;28;52063;-56
2021/08/24 06:08:20;;;;;;;;;11.75;11.75;;;;;23.32;49.22;102063.97;5071178;28;51105;-57
2021/08/24 06:10:45;;;;;;;;;10.00;10.00;;;;;23.33;49.18;102066.53;5063636;27;51194;-56
2021/08/24 06:13:10;;;;;;;;;12.25;11.00;;;;;23.36;49.56;102065.25;5061041;27;51020;-57
2021/08/24 06:15:36;;;;;;;;;9.50;9.50;;;;;23.39;49.53;102064.84;5058998;28;51057;-56
2021/08/24 06:18:02;;;;;;;;;10.00;10.00;;;;;23.42;49.56;102064.41;5056789;28;51242;-56
2021/08/24 06:20:28;;;;;;;;;11.00;9.75;;;;;23.43;49.64;102066.09;5067229;27;51217;-57
2021/08/24 06:22:53;;;;;;;;;12.75;11.50;;;;;23.45;49.05;102060.38;5073234;28;51096;-57
2021/08/24 06:25:19;;;;;;;;;10.75;10.75;;;;;23.46;49.51;102064.84;5068492;27;51088;-59
2021/08/24 06:27:45;;;;;;;;;10.75;10.75;;;;;23.46;49.13;102065.69;5064852;27;51138;-58
2021/08/24 06:30:11;;;;;;;;;10.25;9.25;;;;;23.47;49.23;102059.09;5059461;27;51110;-57
2021/08/24 06:32:41;;;;;;;;;13.25;10.00;;;;;23.48;49.71;102060.78;5063564;28;51105;-59
2021/08/24 06:35:08;;;;;;;;;13.75;10.75;;;;;23.48;49.67;102057.19;5068114;28;51157;-57
2021/08/24 06:37:33;;;;;;;;;13.50;10.25;;;;;23.49;49.77;102064.41;5067344;28;51099;-57
2021/08/24 06:39:59;;;;;;;;;10.00;9.25;;;;;23.48;49.55;102059.94;5061694;27;51787;-57
2021/08/24 06:42:25;;;;;;;;;12.75;11.00;;;;;23.50;49.46;102066.09;5069781;28;51346;-57
2021/08/24 06:44:50;;;;;;;;;13.25;12.00;;;;;23.50;49.57;102064.19;5075459;28;51304;-60
2021/08/24 06:47:15;;;;;;;;;13.00;10.75;;;;;23.50;49.32;102069.72;5076290;27;51084;-59
2021/08/24 06:49:41;;;;;;;;;10.25;9.75;;;;;23.52;48.93;102063.97;5070842;27;51191;-59
2021/08/24 06:52:06;;;;;;;;;13.00;11.25;;;;;23.50;49.25;102066.97;5055482;28;51013;-59
2021/08/24 06:54:33;;;;;;;;;14.00;11.00;;;;;23.52;49.04;102066.75;5056404;28;51450;-59
2021/08/24 06:56:58;;;;;;;;;12.25;10.25;;;;;23.53;49.18;102071.19;5056331;28;51102;-58
2021/08/24 06:59:24;;;;;;;;;12.75;10.00;;;;;23.52;48.67;102075.88;5055695;28;51960;-60
2021/08/24 07:01:49;;;;;;;;;11.50;11.00;;;;;23.53;48.56;102076.72;5060650;27;51353;-59
2021/08/24 07:04:15;;;;;;;;;9.25;9.25;;;;;23.53;48.52;102079.50;5056051;28;51214;-59
2021/08/24 07:06:40;;;;;;;;;12.25;10.25;;;;;23.53;48.72;102074.81;5056388;28;51440;-59
2021/08/24 07:09:06;;;;;;;;;14.50;12.50;;;;;23.53;48.56;102069.28;5055676;28;51087;-59
2021/08/24 07:11:31;;;;;;;;;10.75;9.75;;;;;23.54;48.81;102070.97;5056030;28;51133;-58
2021/08/24 07:13:59;;;;;;;;;12.50;12.00;;;;;23.54;48.78;102070.97;5055675;28;51150;-59
2021/08/24 07:16:25;;;;;;;;;13.00;11.25;;;;;23.55;48.49;102077.38;5055547;28;51172;-59
2021/08/24 07:18:53;;;;;;;;;9.50;9.50;;;;;23.55;48.73;102081.00;5056603;28;51148;-60
2021/08/24 07:21:19;;;;;;;;;10.00;10.00;;;;;23.56;48.66;102073.56;5067277;27;51117;-58
2021/08/24 07:23:46;;;;;;;;;12.00;9.25;;;;;23.57;48.57;102069.72;5072708;28;51071;-59
2021/08/24 07:26:12;;;;;;;;;9.50;9.50;;;;;23.57;48.45;102072.50;5072863;27;51333;-59
2021/08/24 07:28:37;;;;;;;;;12.75;9.50;;;;;23.59;48.46;102070.41;5055292;28;51087;-59
2021/08/24 07:31:03;;;;;;;;;17.50;11.00;;;;;23.59;48.66;102074.00;5055272;28;51099;-58
2021/08/24 07:33:28;;;;;;;;;12.25;9.75;;;;;23.59;48.21;102065.72;5055331;28;51424;-59
2021/08/24 07:35:54;;;;;;;;;13.75;10.25;;;;;23.60;48.60;102072.94;5055878;28;51521;-59
2021/08/24 07:38:19;;;;;;;;;10.25;10.25;;;;;23.61;48.40;102074.63;5072541;28;51984;-59
2021/08/24 07:40:46;;;;;;;;;9.50;9.50;;;;;23.63;48.72;102068.03;5055209;28;51216;-59
2021/08/24 07:43:12;;;;;;;;;10.50;9.75;;;;;23.63;48.27;102071.66;5059537;27;51902;-58
2021/08/24 07:45:38;;;;;;;;;11.25;10.25;;;;;23.63;48.27;102074.41;5061227;27;51296;-59
2021/08/24 07:48:04;;;;;;;;;11.00;10.50;;;;;23.65;48.28;102075.06;5057778;28;51779;-59
2021/08/24 07:50:30;;;;;;;;;11.75;10.25;;;;;23.64;48.58;102067.81;5058447;28;51018;-59
2021/08/24 07:52:55;;;;;;;;;8.00;7.50;;;;;23.65;48.38;102065.91;5058805;28;51065;-58
2021/08/24 07:55:21;;;;;;;;;12.25;10.00;;;;;23.67;48.33;102063.81;5072424;28;51315;-59
2021/08/24 07:57:46;;;;;;;;;11.00;10.00;;;;;23.67;48.36;102072.09;5078420;27;51761;-59
2021/08/24 08:00:12;;;;;;;;;12.50;11.00;;;;;23.67;48.54;102072.94;5078784;28;51170;-59
2021/08/24 08:02:37;;;;;;;;;14.25;13.00;;;;;23.68;48.72;102074.66;5061282;27;51587;-59
2021/08/24 08:05:03;;;;;;;;;14.00;11.25;;;;;23.69;48.12;102075.50;5075876;28;51365;-60
2021/08/24 08:07:28;;;;;;;;;10.00;10.00;;;;;23.69;48.37;102070.81;5078666;27;51763;-59
2021/08/24 08:09:54;;;;;;;;;10.00;8.50;;;;;23.71;47.99;102067.81;5078808;27;51327;-59
2021/08/24 08:12:20;;;;;;;;;11.50;9.50;;;;;23.72;48.38;102069.53;5063742;28;51211;-59
2021/08/24 08:14:46;;;;;;;;;10.00;9.75;;;;;23.74;48.58;102061.84;5058375;28;51188;-60
2021/08/24 08:17:12;;;;;;;;;11.50;10.00;;;;;23.73;48.15;102066.53;5058085;28;51832;-59
2021/08/24 08:19:38;;;;;;;;;8.25;8.25;;;;;23.75;47.88;102063.56;5058393;28;50937;-58
2021/08/24 08:22:04;;;;;;;;;12.75;11.00;;;;;23.75;48.15;102069.94;5069545;28;51120;-58
2021/08/24 08:24:30;;;;;;;;;9.50;9.50;;;;;23.76;48.44;102070.78;5074412;27;51129;-59
2021/08/24 08:26:55;;;;;;;;;12.00;10.00;;;;;23.76;48.21;102065.25;5070260;28;51939;-58
2021/08/24 08:29:20;;;;;;;;;9.00;9.00;;;;;23.75;48.04;102071.84;5076309;28;51144;-58
2021/08/24 08:31:48;;;;;;;;;8.00;8.00;;;;;23.75;48.20;102069.09;5074037;27;51233;-59
2021/08/24 08:34:13;;;;;;;;;13.25;12.75;;;;;23.74;48.47;102071.00;5076623;27;51214;-58
2021/08/24 08:36:39;;;;;;;;;11.50;10.50;;;;;23.74;48.43;102071.00;5073129;27;51913;-61
2021/08/24 08:39:05;;;;;;;;;11.50;11.00;;;;;23.74;48.50;102071.00;5071990;27;51346;-59
2021/08/24 08:41:38;;;;;;;;;11.00;9.50;;;;;23.75;48.19;102074.63;5072184;27;51273;-58
2021/08/24 08:44:29;;;;;;;;;8.75;8.50;;;;;23.73;48.36;102080.38;5075432;27;51130;-58
2021/08/24 08:47:07;;;;;;;;;10.75;9.50;;;;;23.73;48.08;102085.91;5074624;28;51048;-59
2021/08/24 08:49:44;;;;;;;;;9.25;9.00;;;;;23.74;48.23;102072.91;5073977;27;51469;-58
2021/08/24 08:52:19;;;;;;;;;8.00;8.00;;;;;23.75;47.80;102074.63;5075165;27;52213;-58
2021/08/24 08:54:54;;;;;;;;;8.75;8.75;;;;;23.74;47.73;102071.00;5071244;28;51065;-58
2021/08/24 08:57:28;;;;;;;;;11.50;8.75;;;;;23.75;47.51;102075.47;5072844;28;51291;-59
2021/08/24 09:00:15;;;;;;;;;7.00;7.00;;;;;23.76;47.80;102065.25;5073064;28;50955;-59
2021/08/24 09:02:51;;;;;;;;;9.75;8.75;;;;;23.77;47.58;102072.50;5074477;28;51255;-60
2021/08/24 09:05:22;;;;;;;;;13.75;10.00;;;;;23.77;47.56;102072.50;5075130;27;51181;-61
2021/08/24 09:07:52;;;;;;;;;9.25;6.50;;;;;23.79;47.55;102065.69;5070792;27;51417;-61
2021/08/24 09:10:32;;;;;;;;;9.00;8.00;;;;;23.80;47.55;102066.53;5071064;27;51277;-61
2021/08/24 09:13:06;;;;;;;;;8.75;8.00;;;;;23.80;47.26;102061.00;5074558;27;51219;-60
2021/08/24 09:15:39;;;;;;;;;10.00;8.00;;;;;23.81;47.27;102068.25;5074332;27;51076;-61
2021/08/24 09:18:11;;;;;;;;;7.50;6.75;;;;;23.82;47.55;102061.63;5075190;27;51812;-61
2021/08/24 09:20:41;;;;;;;;;8.75;8.75;;;;;23.83;47.56;102055.03;5072132;27;51085;-61
2021/08/24 09:23:12;;;;;;;;;10.00;9.00;;;;;23.85;47.17;102061.19;5072896;27;51179;-61
2021/08/24 09:25:40;;;;;;;;;11.00;8.00;;;;;23.85;47.08;102058.44;5075805;27;51346;-60
2021/08/24 09:28:21;;;;;;;;;9.00;8.00;;;;;23.88;47.07;102066.31;5070289;27;51867;-61
2021/08/24 09:30:46;;;;;;;;;9.25;7.50;;;;;23.88;46.90;102058.03;5069339;28;51565;-61
2021/08/24 09:33:12;;;;;;;;;7.50;7.25;;;;;23.88;47.42;102058.88;5072025;28;51055;-61
2021/08/24 09:35:42;;;;;;;;;7.00;6.00;;;;;23.89;46.42;102062.47;5071465;27;51103;-60
2021/08/24 09:38:27;;;;;;;;;9.25;7.25;;;;;23.91;46.56;102060.34;5067753;28;51068;-60
2021/08/24 09:41:24;;;;;;;;;7.75;6.75;;;;;23.91;46.46;102065.88;5068623;28;51230;-60
2021/08/24 09:43:55;;;;;;;;;6.50;6.50;;;;;23.92;46.46;102053.75;5062418;28;52205;-59
2021/08/24 09:46:20;;;;;;;;;8.25;7.25;;;;;23.93;46.54;102046.28;5063905;28;51235;-59
2021/08/24 09:49:06;;;;;;;;;6.67;6.67;;;;;23.94;46.49;102036.91;5061747;28;51186;-58
2021/08/24 09:51:34;;;;;;;;;7.25;7.25;;;;;23.94;45.78;102035.00;5055863;28;51583;-59
2021/08/24 09:54:01;;;;;;;;;5.25;5.25;;;;;23.94;46.10;102035.00;5055548;28;51264;-59
2021/08/24 09:56:34;;;;;;;;;6.25;6.25;;;;;23.95;45.76;102039.47;5057119;28;51270;-57
2021/08/24 09:59:00;;;;;;;;;7.00;7.00;;;;;23.96;45.68;102032.84;5060496;28;53058;-57
2021/08/24 10:01:44;;;;;;;;;5.50;5.25;;;;;23.96;45.46;102032.84;5058475;27;52569;-57
2021/08/24 10:04:09;;;;;;;;;7.00;4.00;;;;;23.97;45.48;102037.34;5056063;28;51646;-57
2021/08/24 10:06:40;;;;;;;;;7.00;7.00;;;;;23.97;45.63;102037.34;5055792;27;51528;-58
2021/08/24 10:09:31;;;;;;;;;6.75;6.00;;;;;23.98;44.94;102024.38;5057769;27;51595;-58
2021/08/24 10:12:27;;;;;;;;;7.00;5.75;;;;;23.99;45.22;102035.22;5073543;28;51336;-61
2021/08/24 10:14:55;;;;;;;;;4.50;4.50;;;;;24.00;45.16;102022.22;5069994;28;51318;-60
2021/08/24 10:17:36;;;;;;;;;4.50;4.00;;;;;24.00;45.02;102019.44;5075381;27;51295;-59
2021/08/24 10:20:22;;;;;;;;;6.50;5.00;;;;;23.99;44.47;102014.97;5072775;28;51829;-59
2021/08/24 10:22:50;;;;;;;;;6.50;5.50;;;;;24.00;44.60;102022.22;5063196;28;51584;-59
2021/08/24 10:25:22;;;;;;;;;5.75;5.75;;;;;24.00;44.83;102023.06;5073361;27;51079;-59
2021/08/24 10:28:06;;;;;;;;;6.50;5.75;;;;;24.01;44.34;102015.63;5065953;27;50958;-60
2021/08/24 10:30:41;;;;;;;;;8.00;7.00;;;;;24.01;44.34;102013.69;5072308;28;51921;-61
2021/08/24 10:33:17;;;;;;;;;5.75;4.50;;;;;24.01;44.08;102008.16;5073857;27;51354;-59
2021/08/24 10:35:42;;;;;;;;;5.00;5.00;;;;;24.03;43.86;102021.78;5066270;28;51168;-60
2021/08/24 10:38:16;;;;;;;;;8.25;6.00;;;;;24.03;43.29;102008.78;5070639;27;51397;-58
2021/08/24 10:40:45;;;;;;;;;9.75;9.25;;;;;24.04;43.60;102013.25;5055167;28;51092;-58
2021/08/24 10:43:10;;;;;;;;;11.00;11.00;;;;;24.05;43.70;102019.63;5064908;28;51082;-58
2021/08/24 10:45:43;;;;;;;;;16.25;12.75;;;;;24.05;43.56;102006.63;5073680;28;51356;-57
2021/08/24 10:48:15;;;;;;;;;15.25;13.50;;;;;24.06;43.28;102000.03;5074780;27;51432;-58
2021/08/24 10:51:04;;;;;;;;;14.50;12.00;;;;;24.08;43.17;102011.75;5074264;27;51832;-58
2021/08/24 10:53:32;;;;;;;;;15.25;11.00;;;;;24.10;43.12;102009.63;5072944;28;51138;-61
2021/08/24 10:56:06;;;;;;;;;15.25;11.75;;;;;24.12;43.36;102012.16;5072917;28;51363;-58
2021/08/24 10:59:10;;;;;;;;;12.00;10.75;;;;;24.13;43.20;102006.41;5073316;27;51094;-58
2021/08/24 11:01:49;;;;;;;;;8.00;8.00;;;;;24.16;42.91;102005.09;5048676;28;51213;-57
2021/08/24 11:04:30;;;;;;;;;11.75;10.50;;;;;24.17;42.84;102012.34;5050390;28;51252;-61
2021/08/24 11:07:08;;;;;;;;;11.00;9.25;;;;;24.18;42.77;102009.38;5056532;28;51313;-63
2021/08/24 11:09:47;;;;;;;;;12.75;10.25;;;;;24.20;42.71;102011.94;5070252;28;51307;-61
2021/08/24 11:12:25;;;;;;;;;7.00;7.00;;;;;24.21;42.40;102015.53;5069766;27;53300;-65
2021/08/24 11:15:10;;;;;;;;;6.00;6.00;;;;;24.21;42.59;102010.00;5070845;28;51265;-61
2021/08/24 11:18:13;;;;;;;;;9.00;6.50;;;;;24.19;42.32;102002.78;5071094;28;51200;-60
2021/08/24 11:21:01;;;;;;;;;8.75;7.00;;;;;24.21;42.17;102007.25;5074725;27;51362;-61
2021/08/24 11:23:39;;;;;;;;;6.00;6.00;;;;;24.19;42.27;101996.38;5074589;28;52098;-60
2021/08/24 11:26:28;;;;;;;;;10.00;5.25;;;;;24.19;41.60;101997.22;5062715;27;52258;-60
2021/08/24 11:28:59;;;;;;;;;7.50;7.25;;;;;24.20;41.96;101995.31;5071095;28;51262;-61
2021/08/24 11:31:39;;;;;;;;;6.75;6.75;;;;;24.20;41.75;101995.31;5072891;28;51353;-61